Time;durP1;ratioP1;P1;durP2;ratioP2;P2;SDS_P1;SDS_P2;PMS_P1;PMS_P2;Temp;Humidity;BMP_temperature;BMP_pressure;BME280_temperature;BME280_humidity;BME280_pressure;Samples;Min_cycle;Max_cycle;Signal;HPM_P1;HPM_P2
2023/07/31 00:00:50;;;;;;;8.03;1.87;;;16.60;99.90;;;;;;5014464;28;20130;-69
2023/07/31 00:03:16;;;;;;;6.30;1.60;;;16.60;99.90;;;;;;5013951;28;20030;-80
2023/07/31 00:05:42;;;;;;;7.00;1.53;;;16.70;99.90;;;;;;5010983;28;20026;-70
2023/07/31 00:08:07;;;;;;;4.23;1.27;;;16.70;99.90;;;;;;5002266;28;20022;-70
2023/07/31 00:10:33;;;;;;;2.17;1.60;;;16.70;99.90;;;;;;5011646;28;20018;-69
2023/07/31 00:12:59;;;;;;;6.87;2.07;;;16.70;99.90;;;;;;5010457;28;20038;-71
2023/07/31 00:15:25;;;;;;;9.67;1.70;;;16.80;99.90;;;;;;5015734;28;20029;-70
2023/07/31 00:17:50;;;;;;;9.07;2.40;;;16.80;99.90;;;;;;5015015;28;20091;-70
2023/07/31 00:20:16;;;;;;;4.27;1.80;;;16.90;99.90;;;;;;5007562;28;20373;-70
2023/07/31 00:22:42;;;;;;;7.13;2.23;;;16.80;99.90;;;;;;5012422;28;20042;-70
2023/07/31 00:25:07;;;;;;;5.63;2.07;;;16.80;99.90;;;;;;5015433;28;20432;-70
2023/07/31 00:27:33;;;;;;;4.83;1.83;;;16.80;99.90;;;;;;5013102;28;20083;-71
2023/07/31 00:29:59;;;;;;;9.07;1.53;;;16.80;99.90;;;;;;5008809;28;20029;-71
2023/07/31 00:32:24;;;;;;;5.03;1.40;;;16.70;99.90;;;;;;5015478;28;20056;-71
2023/07/31 00:34:50;;;;;;;4.20;1.70;;;16.70;99.90;;;;;;5014739;28;20041;-70
2023/07/31 00:37:16;;;;;;;3.63;1.70;;;16.70;99.90;;;;;;5015404;28;20034;-72
2023/07/31 00:39:41;;;;;;;3.20;1.30;;;16.70;99.90;;;;;;5013413;28;20036;-71
2023/07/31 00:42:07;;;;;;;4.73;1.30;;;16.70;99.90;;;;;;5015344;28;20243;-71
2023/07/31 00:44:33;;;;;;;2.80;1.60;;;16.60;99.90;;;;;;5011144;28;20033;-70
2023/07/31 00:47:00;;;;;;;4.63;1.70;;;16.70;99.90;;;;;;5012850;28;20297;-71
2023/07/31 00:49:26;;;;;;;2.58;1.30;;;16.70;99.90;;;;;;5014040;28;20036;-72
2023/07/31 00:51:52;;;;;;;;;;;16.70;99.90;;;;;;5013007;28;20443;-72
2023/07/31 00:54:19;;;;;;;1.42;1.08;;;16.70;99.90;;;;;;5013397;28;19909;-70
2023/07/31 00:56:48;;;;;;;2.78;1.50;;;16.70;99.90;;;;;;5013197;28;20037;-71
2023/07/31 00:59:14;;;;;;;3.30;1.58;;;16.60;99.90;;;;;;5012520;28;20025;-71
2023/07/31 01:01:40;;;;;;;9.27;2.20;;;16.60;99.90;;;;;;5029664;28;20030;-71
2023/07/31 01:04:06;;;;;;;6.05;1.67;;;16.60;99.90;;;;;;5011757;28;20037;-69
2023/07/31 01:07:03;;;;;;;9.23;2.00;;;16.60;99.90;;;;;;5013933;28;20428;-71
2023/07/31 01:09:55;;;;;;;8.27;2.17;;;16.70;99.90;;;;;;5023075;28;20329;-82
2023/07/31 01:12:23;;;;;;;4.47;1.60;;;16.70;99.90;;;;;;5009361;28;20065;-71
2023/07/31 01:15:02;;;;;;;9.55;2.08;;;16.60;99.90;;;;;;5002243;28;20026;-79
2023/07/31 01:17:28;;;;;;;3.72;1.90;;;16.70;99.90;;;;;;5012786;28;20065;-71
2023/07/31 01:19:57;;;;;;;4.93;1.73;;;16.60;99.90;;;;;;5012672;28;20451;-72
2023/07/31 01:23:03;;;;;;;6.15;2.20;;;16.70;99.90;;;;;;5027484;28;20034;-72
2023/07/31 01:25:47;;;;;;;4.75;2.20;;;16.60;99.90;;;;;;5013865;28;20038;-72
2023/07/31 01:28:55;;;;;;;6.40;1.85;;;16.60;99.90;;;;;;5008363;28;20021;-72
2023/07/31 01:31:23;;;;;;;8.40;2.10;;;16.60;99.90;;;;;;5014207;28;20030;-71
2023/07/31 01:33:52;;;;;;;6.35;2.80;;;16.60;99.90;;;;;;5013858;28;20037;-71
2023/07/31 01:36:18;;;;;;;8.57;2.58;;;16.60;99.90;;;;;;5009498;28;20480;-71
2023/07/31 01:38:44;;;;;;;9.05;2.80;;;16.60;99.90;;;;;;5012325;28;20084;-72
2023/07/31 01:41:10;;;;;;;8.07;2.73;;;16.60;99.90;;;;;;5013188;28;20360;-72
2023/07/31 01:43:35;;;;;;;5.13;2.50;;;16.60;99.90;;;;;;5006937;28;20018;-72
2023/07/31 01:46:01;;;;;;;14.70;2.80;;;16.60;99.90;;;;;;5041651;28;20042;-71
2023/07/31 01:48:36;;;;;;;5.50;2.17;;;16.60;99.90;;;;;;5013915;28;20022;-73
2023/07/31 01:51:02;;;;;;;9.05;2.67;;;16.60;99.90;;;;;;5013490;28;20088;-71
2023/07/31 01:53:30;;;;;;;8.88;3.28;;;16.60;99.90;;;;;;5012402;28;20060;-71
2023/07/31 01:55:55;;;;;;;13.77;3.47;;;16.70;99.90;;;;;;5013470;28;20100;-71
2023/07/31 01:58:21;;;;;;;11.80;3.00;;;16.70;99.90;;;;;;5018411;28;20320;-72
2023/07/31 02:00:47;;;;;;;26.90;4.03;;;16.80;99.90;;;;;;5008495;28;20027;-73
2023/07/31 02:03:12;;;;;;;16.50;3.37;;;16.80;99.90;;;;;;5005796;28;20429;-72
2023/07/31 02:05:45;;;;;;;14.87;3.97;;;16.80;99.90;;;;;;5006913;28;20030;-72
2023/07/31 02:08:11;;;;;;;9.18;3.83;;;16.80;99.90;;;;;;5011860;28;20026;-73
2023/07/31 02:10:37;;;;;;;12.47;3.57;;;16.80;99.90;;;;;;5011970;28;20029;-72
2023/07/31 02:13:05;;;;;;;9.97;3.43;;;16.80;99.90;;;;;;5013593;28;20034;-71
2023/07/31 02:15:31;;;;;;;15.90;3.88;;;16.80;99.90;;;;;;5010723;28;20034;-71
2023/07/31 02:17:58;;;;;;;16.05;3.60;;;16.80;99.90;;;;;;5004681;28;20048;-84
2023/07/31 02:20:23;;;;;;;11.35;4.28;;;16.80;99.90;;;;;;5017713;28;20034;-71
2023/07/31 02:22:49;;;;;;;12.97;3.97;;;16.80;99.90;;;;;;5013801;28;20042;-71
2023/07/31 02:25:15;;;;;;;14.83;4.27;;;16.80;99.90;;;;;;5016587;28;20491;-87
2023/07/31 02:27:42;;;;;;;16.83;4.43;;;16.80;99.90;;;;;;5032451;28;20111;-70
2023/07/31 02:30:09;;;;;;;11.38;4.57;;;16.80;99.90;;;;;;5017309;28;20031;-71
2023/07/31 02:32:34;;;;;;;15.73;4.32;;;16.80;99.90;;;;;;5016908;28;20036;-70
2023/07/31 02:35:00;;;;;;;14.00;3.73;;;16.80;99.90;;;;;;5016352;28;20108;-71
2023/07/31 02:37:26;;;;;;;15.17;4.47;;;16.80;99.90;;;;;;5015815;28;20117;-70
2023/07/31 02:39:52;;;;;;;15.97;4.77;;;16.80;99.90;;;;;;5016543;28;20080;-71
2023/07/31 02:42:17;;;;;;;16.00;4.40;;;16.80;99.90;;;;;;5017566;28;20026;-70
2023/07/31 02:44:43;;;;;;;15.80;4.17;;;16.80;99.90;;;;;;5016806;28;20018;-71
2023/07/31 02:47:09;;;;;;;14.33;4.30;;;16.70;99.90;;;;;;5016637;28;20036;-71
2023/07/31 02:49:35;;;;;;;16.10;4.10;;;16.70;99.90;;;;;;5016700;28;20025;-71
2023/07/31 02:52:00;;;;;;;14.67;4.50;;;16.70;99.90;;;;;;5017339;28;20282;-71
2023/07/31 02:54:26;;;;;;;11.93;3.93;;;16.80;99.90;;;;;;5016563;28;20048;-72
2023/07/31 02:56:52;;;;;;;16.50;4.33;;;16.70;99.90;;;;;;5015771;28;20052;-71
2023/07/31 02:59:18;;;;;;;15.40;4.17;;;16.70;99.90;;;;;;5017003;28;20032;-71
2023/07/31 03:01:44;;;;;;;13.80;3.95;;;16.80;99.90;;;;;;5015407;28;20045;-71
2023/07/31 03:04:10;;;;;;;15.93;3.50;;;16.80;99.90;;;;;;5017003;28;20029;-71
2023/07/31 03:06:35;;;;;;;20.57;4.67;;;16.70;99.90;;;;;;5013477;28;20026;-71
2023/07/31 03:09:01;;;;;;;17.07;3.93;;;16.80;99.90;;;;;;5017046;28;20030;-71
2023/07/31 03:11:26;;;;;;;14.97;4.63;;;16.80;99.90;;;;;;5016261;28;20333;-70
2023/07/31 03:13:52;;;;;;;16.53;4.23;;;16.80;99.90;;;;;;5024864;28;20025;-70
2023/07/31 03:16:18;;;;;;;16.07;3.80;;;16.70;99.90;;;;;;5028418;28;20037;-79
2023/07/31 03:18:44;;;;;;;20.90;5.80;;;16.80;99.90;;;;;;5016101;28;20080;-82
2023/07/31 03:21:09;;;;;;;28.43;4.27;;;16.80;99.90;;;;;;5016604;28;20317;-70
2023/07/31 03:23:35;;;;;;;12.07;3.23;;;16.80;99.90;;;;;;5015871;28;20048;-69
2023/07/31 03:26:03;;;;;;;12.43;4.23;;;16.70;99.90;;;;;;5015289;28;20034;-71
2023/07/31 03:28:29;;;;;;;14.13;4.57;;;16.80;99.90;;;;;;5014747;28;20025;-71
2023/07/31 03:30:55;;;;;;;20.52;4.55;;;16.80;99.90;;;;;;5016013;28;20088;-70
2023/07/31 03:33:21;;;;;;;9.97;4.23;;;16.80;99.90;;;;;;5015445;28;20038;-71
2023/07/31 03:35:47;;;;;;;20.47;4.63;;;16.80;99.90;;;;;;5014795;28;20273;-70
2023/07/31 03:38:13;;;;;;;13.97;4.60;;;16.70;99.90;;;;;;5013819;28;20026;-70
2023/07/31 03:40:39;;;;;;;11.68;3.90;;;16.80;99.90;;;;;;5015072;28;20321;-69
2023/07/31 03:43:05;;;;;;;18.20;4.87;;;16.80;99.90;;;;;;5014218;28;20036;-70
2023/07/31 03:45:31;;;;;;;16.95;4.70;;;16.80;99.90;;;;;;5015638;28;20129;-69
2023/07/31 03:47:57;;;;;;;11.75;3.83;;;16.80;99.90;;;;;;5014642;28;20054;-70
2023/07/31 03:50:24;;;;;;;16.10;3.87;;;16.80;99.90;;;;;;5016142;28;20064;-70
2023/07/31 03:52:50;;;;;;;14.18;4.95;;;16.80;99.90;;;;;;5014531;28;20040;-70
2023/07/31 03:55:16;;;;;;;18.57;5.03;;;16.80;99.90;;;;;;5016463;28;20120;-80
2023/07/31 03:57:42;;;;;;;17.43;4.33;;;16.70;99.90;;;;;;5015830;28;20052;-70
2023/07/31 04:00:10;;;;;;;10.13;4.70;;;16.70;99.90;;;;;;5016163;28;20030;-70
2023/07/31 04:02:36;;;;;;;15.50;4.28;;;16.70;99.90;;;;;;5000188;28;20118;-70
2023/07/31 04:05:01;;;;;;;8.57;3.90;;;16.70;99.90;;;;;;5014723;28;20108;-70
2023/07/31 04:07:27;;;;;;;11.73;4.23;;;16.70;99.90;;;;;;5031697;28;20485;-70
2023/07/31 04:09:53;;;;;;;11.90;4.23;;;16.70;99.90;;;;;;5015642;28;20022;-78
2023/07/31 04:12:18;;;;;;;16.60;4.30;;;16.70;99.90;;;;;;5014988;28;20101;-70
2023/07/31 04:14:44;;;;;;;17.93;5.37;;;16.70;99.90;;;;;;5014590;28;20028;-70
2023/07/31 04:17:10;;;;;;;14.50;4.23;;;16.70;99.90;;;;;;5016080;28;20022;-71
2023/07/31 04:19:35;;;;;;;20.93;3.77;;;16.70;99.90;;;;;;5015570;28;20039;-79
2023/07/31 04:22:01;;;;;;;18.00;4.40;;;16.70;99.90;;;;;;5014988;28;20476;-71
2023/07/31 04:24:27;;;;;;;13.60;4.27;;;16.70;99.90;;;;;;5030848;28;20033;-71
2023/07/31 04:26:53;;;;;;;9.47;4.23;;;16.70;99.90;;;;;;5014762;28;20030;-70
2023/07/31 04:29:19;;;;;;;15.75;4.03;;;16.70;99.90;;;;;;5014844;28;20037;-71
2023/07/31 04:31:44;;;;;;;10.03;3.67;;;16.70;99.90;;;;;;5010559;28;20030;-70
2023/07/31 04:34:11;;;;;;;9.97;3.50;;;16.70;99.90;;;;;;5015612;28;20251;-70
2023/07/31 04:36:38;;;;;;;12.68;3.83;;;16.70;99.90;;;;;;5014797;28;20026;-84
2023/07/31 04:39:04;;;;;;;;;;;16.70;99.90;;;;;;5030732;28;20026;-71
2023/07/31 04:41:29;;;;;;;12.15;3.50;;;16.80;99.90;;;;;;5015524;28;19905;-70
2023/07/31 04:43:55;;;;;;;14.40;3.87;;;16.70;99.90;;;;;;5030074;28;20026;-70
2023/07/31 04:46:21;;;;;;;11.57;3.70;;;16.80;99.90;;;;;;5015300;28;20030;-71
2023/07/31 04:48:46;;;;;;;9.83;4.07;;;16.80;99.90;;;;;;5015860;28;20029;-71
2023/07/31 04:51:12;;;;;;;12.80;3.50;;;16.80;99.90;;;;;;5014872;28;20402;-71
2023/07/31 04:53:38;;;;;;;12.50;3.80;;;16.70;99.90;;;;;;5013962;28;20310;-71
2023/07/31 04:56:03;;;;;;;12.17;3.50;;;16.70;99.90;;;;;;5014200;28;20057;-71
2023/07/31 04:58:29;;;;;;;7.10;2.93;;;16.80;99.90;;;;;;5008714;28;20409;-71
2023/07/31 05:00:55;;;;;;;10.73;2.83;;;16.70;99.90;;;;;;5022040;28;20023;-71
2023/07/31 05:03:21;;;;;;;7.43;2.97;;;16.80;99.90;;;;;;5010328;28;20355;-70
2023/07/31 05:05:47;;;;;;;10.03;3.47;;;16.70;99.90;;;;;;5004062;28;20081;-71
2023/07/31 05:08:13;;;;;;;10.85;3.00;;;16.80;99.90;;;;;;5006124;28;20120;-70
2023/07/31 05:10:38;;;;;;;11.07;4.10;;;16.80;99.90;;;;;;5010915;28;20113;-70
2023/07/31 05:13:05;;;;;;;7.47;3.20;;;16.80;99.90;;;;;;5004494;28;20025;-87
2023/07/31 05:15:30;;;;;;;6.15;2.50;;;16.70;99.90;;;;;;5008638;28;20751;-71
2023/07/31 05:17:56;;;;;;;5.23;2.80;;;16.70;99.90;;;;;;5010367;28;20120;-71
2023/07/31 05:20:22;;;;;;;4.80;2.23;;;16.70;99.90;;;;;;5010967;28;20038;-71
2023/07/31 05:22:47;;;;;;;4.23;2.37;;;16.70;99.90;;;;;;5005421;28;20043;-72
2023/07/31 05:25:13;;;;;;;4.53;1.97;;;16.60;99.90;;;;;;5014316;28;20030;-71
2023/07/31 05:27:39;;;;;;;7.97;2.17;;;16.60;99.90;;;;;;5011238;28;20084;-71
2023/07/31 05:30:05;;;;;;;3.10;2.13;;;16.60;99.90;;;;;;5008987;28;20029;-71
2023/07/31 05:32:31;;;;;;;5.20;1.92;;;16.60;99.90;;;;;;5018163;28;20034;-71
2023/07/31 05:34:57;;;;;;;4.03;1.87;;;16.60;99.90;;;;;;5029681;28;20041;-71
2023/07/31 05:37:23;;;;;;;2.37;1.50;;;16.60;99.90;;;;;;5014916;28;20026;-71
2023/07/31 05:39:49;;;;;;;7.17;1.93;;;16.60;99.90;;;;;;5013658;28;20101;-73
2023/07/31 05:42:14;;;;;;;5.07;1.90;;;16.60;99.90;;;;;;5012816;28;20567;-71
2023/07/31 05:44:40;;;;;;;4.73;2.03;;;16.60;99.90;;;;;;5010609;28;20096;-70
2023/07/31 05:47:06;;;;;;;3.40;1.70;;;16.60;99.90;;;;;;5008870;28;20058;-71
2023/07/31 05:49:31;;;;;;;6.33;2.30;;;16.60;99.90;;;;;;5027891;28;20021;-71
2023/07/31 05:51:57;;;;;;;3.67;2.10;;;16.60;99.90;;;;;;5015307;28;20022;-71
2023/07/31 05:54:23;;;;;;;2.93;1.77;;;16.60;99.90;;;;;;5032793;28;20053;-70
2023/07/31 05:56:48;;;;;;;2.00;1.80;;;16.60;99.90;;;;;;5035413;28;20048;-72
2023/07/31 05:59:14;;;;;;;6.87;1.90;;;16.60;99.90;;;;;;5030087;28;20093;-71
2023/07/31 06:01:40;;;;;;;7.40;1.87;;;16.60;99.90;;;;;;5024676;28;20132;-70
2023/07/31 06:04:05;;;;;;;3.53;1.63;;;16.60;99.90;;;;;;5030339;28;20029;-70
2023/07/31 06:06:31;;;;;;;5.17;1.87;;;16.50;99.90;;;;;;5034231;28;20017;-71
2023/07/31 06:08:57;;;;;;;3.97;1.40;;;16.60;99.90;;;;;;5034376;28;20025;-71
2023/07/31 06:11:23;;;;;;;3.50;1.90;;;16.60;99.90;;;;;;5026552;28;20025;-71
2023/07/31 06:13:49;;;;;;;2.93;1.77;;;16.60;99.90;;;;;;5029338;28;20116;-71
2023/07/31 06:16:15;;;;;;;;;;;16.60;99.90;;;;;;5027810;28;20077;-71
2023/07/31 06:18:41;;;;;;;3.22;1.38;;;16.60;99.90;;;;;;5033685;28;20251;-71
2023/07/31 06:21:08;;;;;;;3.28;1.30;;;16.60;99.90;;;;;;5018779;28;20022;-71
2023/07/31 06:23:33;;;;;;;4.90;1.83;;;16.70;99.90;;;;;;5028303;28;20041;-70
2023/07/31 06:25:59;;;;;;;3.27;1.60;;;16.70;99.90;;;;;;5017867;28;20034;-71
2023/07/31 06:28:31;;;;;;;3.27;1.40;;;16.70;99.90;;;;;;5032503;28;20013;-71
2023/07/31 06:31:00;;;;;;;6.30;2.13;;;16.70;99.90;;;;;;5034000;28;20049;-81
2023/07/31 06:33:27;;;;;;;4.78;1.45;;;16.70;99.90;;;;;;5030555;28;20395;-70
2023/07/31 06:35:53;;;;;;;3.78;1.73;;;16.80;99.90;;;;;;5018506;28;20030;-70
2023/07/31 06:38:26;;;;;;;2.43;1.30;;;16.80;99.90;;;;;;5017832;28;20091;-71
2023/07/31 06:40:52;;;;;;;5.20;1.60;;;16.80;99.90;;;;;;5017384;28;20268;-71
2023/07/31 06:43:17;;;;;;;7.00;1.58;;;16.80;99.90;;;;;;5017337;28;20036;-70
2023/07/31 06:45:43;;;;;;;3.20;1.67;;;16.90;99.90;;;;;;5016187;28;20427;-71
2023/07/31 06:48:09;;;;;;;4.33;1.80;;;16.90;99.90;;;;;;5017776;28;20022;-71
2023/07/31 06:50:34;;;;;;;2.57;1.27;;;16.90;99.90;;;;;;5016451;28;20106;-70
2023/07/31 06:53:00;;;;;;;2.37;1.60;;;16.90;99.90;;;;;;5017127;28;20018;-71
2023/07/31 06:55:26;;;;;;;2.57;1.67;;;16.90;99.90;;;;;;5017744;28;20041;-71
2023/07/31 06:57:53;;;;;;;2.63;1.20;;;16.90;99.90;;;;;;5016983;28;20049;-71
2023/07/31 07:00:20;;;;;;;3.33;1.08;;;16.90;99.90;;;;;;5017639;28;20353;-72
2023/07/31 07:02:49;;;;;;;1.67;1.20;;;17.00;99.90;;;;;;5015620;28;20029;-70
2023/07/31 07:05:16;;;;;;;3.75;1.40;;;17.00;99.90;;;;;;5017152;28;20050;-72
2023/07/31 07:07:42;;;;;;;3.92;1.33;;;17.00;99.90;;;;;;5016726;28;20057;-70
2023/07/31 07:10:08;;;;;;;0.93;0.80;;;17.10;99.90;;;;;;5017639;28;20026;-71
2023/07/31 07:12:35;;;;;;;1.63;1.17;;;17.10;99.90;;;;;;5013437;28;20034;-71
2023/07/31 07:15:01;;;;;;;;;;;17.10;99.90;;;;;;5031722;28;20049;-71
2023/07/31 07:17:29;;;;;;;2.67;1.00;;;17.10;99.90;;;;;;5017231;28;19932;-70
2023/07/31 07:19:55;;;;;;;1.98;1.17;;;17.10;99.90;;;;;;5016349;28;20037;-70
2023/07/31 07:22:21;;;;;;;3.45;1.33;;;17.20;99.90;;;;;;5017245;28;20085;-71
2023/07/31 07:24:47;;;;;;;3.70;1.37;;;17.10;99.90;;;;;;5014368;28;20049;-70
2023/07/31 07:27:12;;;;;;;1.10;1.00;;;17.20;99.90;;;;;;5022657;28;20033;-70
2023/07/31 07:29:38;;;;;;;1.47;0.80;;;17.20;99.90;;;;;;5009894;28;20023;-70
2023/07/31 07:32:04;;;;;;;1.43;0.80;;;17.20;99.90;;;;;;5005877;28;20028;-70
2023/07/31 07:34:30;;;;;;;0.93;0.70;;;17.20;99.90;;;;;;5004866;28;20022;-70
2023/07/31 07:36:56;;;;;;;2.40;1.00;;;17.30;99.90;;;;;;5003698;28;20032;-70
2023/07/31 07:39:21;;;;;;;1.70;0.57;;;17.30;99.90;;;;;;5016985;28;20041;-71
2023/07/31 07:41:48;;;;;;;0.97;0.60;;;17.30;99.90;;;;;;5011121;28;20026;-70
2023/07/31 07:44:14;;;;;;;0.73;0.40;;;17.30;99.90;;;;;;5006841;28;20022;-70
2023/07/31 07:46:40;;;;;;;0.88;0.57;;;17.40;99.90;;;;;;5022437;28;20030;-70
2023/07/31 07:49:06;;;;;;;1.33;0.50;;;17.30;99.90;;;;;;5009015;28;20121;-69
2023/07/31 07:51:31;;;;;;;0.80;0.60;;;17.40;99.90;;;;;;5007728;28;20089;-71
2023/07/31 07:54:00;;;;;;;0.40;0.40;;;17.40;99.90;;;;;;5004076;28;20030;-72
2023/07/31 07:56:27;;;;;;;1.20;0.45;;;17.50;99.90;;;;;;5007097;28;20077;-71
2023/07/31 07:58:53;;;;;;;0.50;0.50;;;17.50;99.90;;;;;;5006004;28;20037;-71
2023/07/31 08:01:19;;;;;;;0.73;0.68;;;17.50;99.90;;;;;;5013547;28;20034;-71
2023/07/31 08:03:45;;;;;;;0.53;0.53;;;17.50;99.90;;;;;;5009929;28;20445;-71
2023/07/31 08:06:11;;;;;;;0.85;0.50;;;17.50;99.90;;;;;;5018239;28;20259;-71
2023/07/31 08:08:37;;;;;;;0.50;0.50;;;17.60;99.90;;;;;;5005321;28;20501;-70
2023/07/31 08:11:03;;;;;;;0.50;0.40;;;17.60;99.90;;;;;;5013268;28;20018;-71
2023/07/31 08:13:29;;;;;;;0.95;0.60;;;17.60;99.90;;;;;;5006469;28;20333;-72
2023/07/31 08:15:55;;;;;;;0.70;0.50;;;17.60;99.90;;;;;;5005642;28;20080;-70
2023/07/31 08:18:21;;;;;;;0.83;0.47;;;17.60;99.90;;;;;;5010538;28;20032;-70
2023/07/31 08:20:46;;;;;;;1.20;0.50;;;17.70;99.90;;;;;;5012339;28;20117;-71
2023/07/31 08:23:12;;;;;;;1.60;0.50;;;17.70;99.90;;;;;;5012458;28;20057;-71
2023/07/31 08:25:38;;;;;;;0.67;0.50;;;17.70;99.90;;;;;;5003358;28;20033;-71
2023/07/31 08:28:05;;;;;;;0.50;0.32;;;17.60;99.90;;;;;;5005869;28;20145;-71
2023/07/31 08:30:31;;;;;;;;;;;17.70;99.90;;;;;;5003069;28;20030;-71
2023/07/31 08:32:57;;;;;;;0.40;0.30;;;17.80;99.90;;;;;;5012751;28;19978;-70
2023/07/31 08:35:24;;;;;;;0.37;0.30;;;17.80;99.90;;;;;;5003732;28;20071;-71
2023/07/31 08:37:49;;;;;;;0.40;0.40;;;17.80;99.90;;;;;;5003297;28;20075;-71
2023/07/31 08:40:15;;;;;;;0.37;0.37;;;17.90;99.90;;;;;;5000147;28;20073;-71
2023/07/31 08:42:48;;;;;;;0.52;0.52;;;17.90;99.90;;;;;;5006547;28;20041;-71
2023/07/31 08:45:19;;;;;;;0.25;0.20;;;17.90;99.90;;;;;;5001019;28;20026;-71
2023/07/31 08:47:46;;;;;;;0.35;0.35;;;17.90;99.90;;;;;;5009807;28;20029;-72
2023/07/31 08:50:13;;;;;;;0.55;0.40;;;18.00;99.90;;;;;;5004788;28;20665;-71
2023/07/31 08:52:39;;;;;;;;;;;18.00;99.90;;;;;;5011046;28;20030;-70
2023/07/31 08:55:06;;;;;;;0.32;0.32;;;18.10;99.90;;;;;;5009333;28;19909;-71
2023/07/31 08:57:34;;;;;;;0.40;0.40;;;18.10;99.90;;;;;;5015844;28;20044;-71
2023/07/31 09:00:00;;;;;;;0.28;0.25;;;18.10;99.90;;;;;;5016354;28;20316;-70
2023/07/31 09:02:37;;;;;;;0.38;0.38;;;18.20;99.90;;;;;;5021098;28;20029;-87
2023/07/31 09:05:05;;;;;;;0.30;0.30;;;18.20;99.90;;;;;;5022986;28;20029;-71
2023/07/31 09:07:33;;;;;;;0.90;0.40;;;18.20;99.90;;;;;;5022980;28;20399;-71
2023/07/31 09:09:59;;;;;;;0.30;0.30;;;18.20;99.90;;;;;;5023050;28;20038;-73
2023/07/31 09:12:25;;;;;;;0.20;0.20;;;18.20;99.90;;;;;;5015681;28;20047;-71
2023/07/31 09:14:51;;;;;;;0.25;0.25;;;18.20;99.90;;;;;;5025378;28;20029;-71
2023/07/31 09:17:32;;;;;;;0.77;0.40;;;18.20;99.90;;;;;;5023148;28;20113;-71
2023/07/31 09:20:00;;;;;;;2.20;0.50;;;18.20;99.90;;;;;;5016508;28;20022;-71
2023/07/31 09:22:33;;;;;;;1.75;0.60;;;18.30;99.90;;;;;;5027972;28;20046;-71
2023/07/31 09:25:18;;;;;;;2.13;0.70;;;18.30;99.90;;;;;;5037458;28;20443;-72
2023/07/31 09:28:10;;;;;;;2.65;0.55;;;18.40;99.90;;;;;;5006045;28;20022;-71
2023/07/31 09:30:48;;;;;;;2.25;0.68;;;18.40;99.90;;;;;;5009879;28;20360;-72
2023/07/31 09:33:14;;;;;;;1.73;0.80;;;18.40;99.90;;;;;;5009985;28;20022;-70
2023/07/31 09:35:40;;;;;;;1.67;1.05;;;18.40;99.90;;;;;;5014716;28;20033;-72
2023/07/31 09:38:09;;;;;;;6.85;1.38;;;18.50;99.90;;;;;;5007157;28;20030;-72
2023/07/31 09:40:40;;;;;;;2.95;0.95;;;18.50;99.90;;;;;;5004873;28;20018;-72
2023/07/31 09:43:08;;;;;;;1.70;1.00;;;18.50;99.90;;;;;;5010754;28;20034;-72
2023/07/31 09:45:38;;;;;;;1.52;1.13;;;18.50;99.90;;;;;;5014108;28;20116;-73
2023/07/31 09:48:09;;;;;;;2.35;1.20;;;18.60;99.90;;;;;;5012192;28;20433;-71
2023/07/31 09:50:37;;;;;;;6.28;1.27;;;18.60;99.90;;;;;;5010782;28;20417;-72
2023/07/31 09:53:04;;;;;;;4.50;1.30;;;18.60;99.90;;;;;;5005511;28;20037;-71
2023/07/31 09:55:31;;;;;;;5.30;1.30;;;18.60;99.90;;;;;;5032411;28;20034;-73
2023/07/31 09:57:58;;;;;;;10.65;2.05;;;18.70;99.90;;;;;;5010862;28;20536;-89
2023/07/31 10:00:28;;;;;;;3.90;1.40;;;18.70;99.90;;;;;;5031741;28;20025;-73
2023/07/31 10:02:58;;;;;;;3.45;1.65;;;18.80;99.90;;;;;;5016428;28;20076;-72
2023/07/31 10:05:27;;;;;;;3.00;1.48;;;18.80;99.90;;;;;;5005896;28;20313;-93
2023/07/31 10:07:57;;;;;;;3.92;1.70;;;18.70;99.90;;;;;;5009350;28;20018;-71
2023/07/31 10:10:24;;;;;;;3.70;0.88;;;18.70;99.90;;;;;;5018362;28;20022;-73
2023/07/31 10:12:52;;;;;;;6.90;1.60;;;18.70;99.90;;;;;;5016268;28;20036;-74
2023/07/31 10:15:19;;;;;;;7.63;1.30;;;18.70;99.90;;;;;;5022293;28;20029;-72
2023/07/31 10:17:48;;;;;;;;;;;18.80;99.90;;;;;;5020061;28;20053;-72
2023/07/31 10:20:16;;;;;;;4.55;1.38;;;18.70;99.90;;;;;;5014987;28;19906;-73
2023/07/31 10:22:46;;;;;;;5.53;1.83;;;18.70;99.90;;;;;;5013228;28;20049;-72
2023/07/31 10:25:12;;;;;;;9.63;1.50;;;18.80;99.90;;;;;;5012741;28;20022;-72
2023/07/31 10:27:41;;;;;;;10.27;2.08;;;18.80;99.90;;;;;;5030137;28;20105;-72
2023/07/31 10:30:17;;;;;;;7.47;2.08;;;18.90;99.90;;;;;;5007105;28;20033;-71
2023/07/31 10:32:45;;;;;;;9.07;2.00;;;19.00;99.90;;;;;;5021638;28;20464;-71
2023/07/31 10:35:12;;;;;;;6.55;1.58;;;19.10;99.90;;;;;;5021215;28;20037;-72
2023/07/31 10:37:42;;;;;;;5.70;1.88;;;19.10;99.90;;;;;;5032209;28;20022;-72
2023/07/31 10:40:16;;;;;;;6.03;1.63;;;19.00;99.90;;;;;;5026969;28;20030;-72
2023/07/31 10:42:50;;;;;;;3.15;1.60;;;19.00;99.90;;;;;;5026723;28;20033;-73
2023/07/31 10:45:33;;;;;;;8.23;1.58;;;18.90;99.90;;;;;;5020055;28;20068;-74
2023/07/31 10:48:07;;;;;;;6.90;1.67;;;18.90;99.90;;;;;;5049234;28;20408;-76
2023/07/31 10:50:37;;;;;;;3.97;1.52;;;18.80;99.90;;;;;;5023840;28;20025;-71
2023/07/31 10:53:03;;;;;;;5.15;1.98;;;18.80;99.90;;;;;;5010689;28;20075;-71
2023/07/31 10:55:38;;;;;;;6.95;1.88;;;18.80;99.90;;;;;;5018400;28;20416;-75
2023/07/31 10:58:12;;;;;;;6.05;2.58;;;18.80;99.90;;;;;;5020342;28;20037;-71
2023/07/31 11:00:42;;;;;;;5.53;1.75;;;18.70;99.90;;;;;;5040628;28;20062;-73
2023/07/31 11:03:16;;;;;;;3.63;1.60;;;18.80;99.90;;;;;;5019188;28;20056;-72
2023/07/31 11:06:03;;;;;;;3.72;1.85;;;18.80;99.90;;;;;;5019440;28;20033;-72
2023/07/31 11:08:35;;;;;;;7.10;1.63;;;18.90;99.90;;;;;;5019338;28;20337;-71
2023/07/31 11:11:05;;;;;;;9.20;1.63;;;19.00;99.90;;;;;;5033992;28;20091;-71
2023/07/31 11:13:49;;;;;;;2.88;1.83;;;19.00;99.90;;;;;;5020292;28;20036;-72
2023/07/31 11:16:15;;;;;;;4.07;1.73;;;19.00;99.90;;;;;;5016553;28;20033;-71
2023/07/31 11:18:43;;;;;;;6.65;2.03;;;19.00;99.90;;;;;;5020164;28;20116;-72
2023/07/31 11:21:16;;;;;;;3.88;1.65;;;19.10;99.90;;;;;;5025774;28;20037;-83
2023/07/31 11:23:46;;;;;;;7.65;1.85;;;19.00;99.90;;;;;;5010825;28;20046;-72
2023/07/31 11:26:12;;;;;;;7.13;1.60;;;19.00;99.90;;;;;;5018659;28;20100;-71
2023/07/31 11:28:38;;;;;;;4.80;2.13;;;19.00;99.90;;;;;;5004156;28;20337;-72
2023/07/31 11:31:04;;;;;;;8.03;2.17;;;19.00;99.90;;;;;;5028950;28;20309;-71
2023/07/31 11:33:30;;;;;;;6.53;1.50;;;19.00;99.90;;;;;;5024103;28;20424;-71
2023/07/31 11:35:56;;;;;;;7.23;1.50;;;19.00;99.90;;;;;;5015780;28;20119;-90
2023/07/31 11:38:27;;;;;;;7.72;2.03;;;19.00;99.90;;;;;;5019608;28;20036;-71
2023/07/31 11:40:54;;;;;;;6.88;1.80;;;19.10;99.90;;;;;;5019099;28;20103;-71
2023/07/31 11:43:21;;;;;;;6.45;2.10;;;19.20;99.90;;;;;;5022237;28;20037;-73
2023/07/31 11:45:51;;;;;;;;;;;19.20;99.90;;;;;;5032896;28;20340;-71
2023/07/31 11:48:23;;;;;;;8.15;1.88;;;19.20;99.90;;;;;;5022672;28;20525;-86
2023/07/31 11:50:54;;;;;;;8.07;1.77;;;19.20;99.90;;;;;;5035078;28;20044;-83
2023/07/31 11:53:30;;;;;;;7.72;2.10;;;19.20;99.90;;;;;;5016076;28;20058;-72
2023/07/31 11:55:57;;;;;;;6.85;2.35;;;19.10;99.90;;;;;;5023591;28;20026;-72
2023/07/31 11:58:23;;;;;;;4.57;1.60;;;19.00;99.90;;;;;;5026039;28;20026;-71
2023/07/31 12:00:49;;;;;;;6.93;1.63;;;19.00;99.90;;;;;;5027057;28;20041;-70
2023/07/31 12:03:15;;;;;;;5.45;1.90;;;19.10;99.90;;;;;;5009733;28;20017;-73
2023/07/31 12:05:41;;;;;;;4.80;1.58;;;19.10;99.90;;;;;;5008700;28;20031;-71
2023/07/31 12:08:15;;;;;;;8.43;1.37;;;19.10;99.90;;;;;;5014600;28;20022;-72
2023/07/31 12:11:09;;;;;;;6.45;1.80;;;19.20;99.90;;;;;;5015612;28;20105;-72
2023/07/31 12:13:35;;;;;;;11.75;2.03;;;19.20;99.90;;;;;;5013891;28;20105;-71
2023/07/31 12:16:03;;;;;;;4.00;1.40;;;19.20;99.90;;;;;;5022722;28;20033;-71
2023/07/31 12:18:32;;;;;;;6.45;1.90;;;19.20;99.90;;;;;;5015164;28;20429;-71
2023/07/31 12:21:00;;;;;;;6.53;2.42;;;19.20;99.90;;;;;;5027419;28;20114;-73
2023/07/31 12:23:31;;;;;;;9.50;2.08;;;19.30;99.90;;;;;;5018143;28;20046;-71
2023/07/31 12:26:16;;;;;;;6.93;1.55;;;19.30;99.90;;;;;;5011558;28;20022;-71
2023/07/31 12:28:46;;;;;;;5.60;1.50;;;19.40;99.90;;;;;;5016625;28;20033;-72
2023/07/31 12:31:17;;;;;;;9.55;2.00;;;19.30;99.90;;;;;;5013589;28;20439;-72
2023/07/31 12:33:44;;;;;;;3.38;1.77;;;19.40;99.90;;;;;;5014108;28;20298;-71
2023/07/31 12:36:15;;;;;;;5.85;1.40;;;19.50;99.90;;;;;;5006942;28;20027;-71
2023/07/31 12:38:42;;;;;;;3.55;1.48;;;19.50;99.90;;;;;;5004994;28;20026;-71
2023/07/31 12:41:08;;;;;;;4.60;1.60;;;19.50;99.90;;;;;;5005455;28;20105;-83
2023/07/31 12:43:35;;;;;;;2.17;1.25;;;19.60;99.90;;;;;;5006307;28;20041;-72
2023/07/31 12:46:01;;;;;;;4.22;1.67;;;19.60;99.90;;;;;;5003065;28;20400;-72
2023/07/31 12:48:26;;;;;;;4.07;1.50;;;19.70;99.90;;;;;;5004454;28;20018;-71